createdAt,value
2018-03-30T00:00:07.099Z,20.07
2018-03-30T00:02:34.579Z,21.67
2018-03-30T00:05:02.827Z,23.90
2018-03-30T00:07:30.295Z,22.13
2018-03-30T00:09:57.767Z,20.00
2018-03-30T00:12:25.246Z,21.60
2018-03-30T00:14:52.715Z,22.10
2018-03-30T00:17:20.174Z,22.23
2018-03-30T00:19:47.662Z,22.73
2018-03-30T00:22:15.136Z,23.67
2018-03-30T00:24:42.619Z,21.07
2018-03-30T00:27:10.858Z,22.67
2018-03-30T00:29:38.322Z,20.67
2018-03-30T00:32:05.792Z,26.30
2018-03-30T00:34:33.272Z,20.43
2018-03-30T00:37:01.508Z,19.83
2018-03-30T00:39:28.992Z,19.90
2018-03-30T00:41:56.470Z,19.97
2018-03-30T00:44:24.736Z,18.83
2018-03-30T00:46:52.204Z,22.70
2018-03-30T00:49:20.447Z,22.97
2018-03-30T00:51:47.910Z,23.90
2018-03-30T00:54:15.398Z,21.50
2018-03-30T00:56:43.639Z,23.80
2018-03-30T00:59:11.115Z,22.03
2018-03-30T01:01:38.592Z,25.70
2018-03-30T01:04:06.845Z,25.50
2018-03-30T01:06:34.323Z,25.50
2018-03-30T01:09:02.572Z,20.93
2018-03-30T01:11:30.043Z,21.60
2018-03-30T01:13:57.520Z,22.53
2018-03-30T01:16:25.751Z,20.17
2018-03-30T01:18:53.235Z,22.07
2018-03-30T01:21:20.712Z,21.40
2018-03-30T01:23:48.955Z,17.83
2018-03-30T01:26:16.429Z,21.63
2018-03-30T01:28:43.899Z,20.90
2018-03-30T01:31:12.136Z,21.17
2018-03-30T01:33:39.614Z,21.70
2018-03-30T01:36:07.085Z,21.87
2018-03-30T01:38:35.335Z,26.97
2018-03-30T01:41:02.807Z,24.50
2018-03-30T01:43:30.282Z,29.70
2018-03-30T01:45:58.529Z,22.30
2018-03-30T01:48:25.996Z,20.83
2018-03-30T01:50:53.468Z,24.70
2018-03-30T01:53:21.711Z,25.10
2018-03-30T01:55:49.188Z,23.97
2018-03-30T01:58:16.678Z,21.43
2018-03-30T02:00:44.909Z,22.20
2018-03-30T02:03:12.384Z,27.07
2018-03-30T02:05:39.856Z,26.40
2018-03-30T02:08:08.091Z,22.00
2018-03-30T02:10:35.573Z,31.13
2018-03-30T02:13:03.054Z,21.43
2018-03-30T02:15:31.283Z,22.47
2018-03-30T02:17:58.753Z,21.33
2018-03-30T02:20:26.243Z,25.63
2018-03-30T02:22:54.476Z,24.00
2018-03-30T02:25:21.987Z,22.40
2018-03-30T02:27:50.942Z,24.97
2018-03-30T02:30:18.422Z,24.37
2018-03-30T02:32:46.667Z,26.30
2018-03-30T02:35:14.148Z,23.27
2018-03-30T02:37:41.624Z,24.03
2018-03-30T02:40:09.862Z,25.07
2018-03-30T02:42:37.328Z,25.43
2018-03-30T02:45:04.809Z,26.17
2018-03-30T02:47:33.057Z,23.97
2018-03-30T02:50:00.552Z,25.17
2018-03-30T02:52:28.778Z,22.13
2018-03-30T02:54:56.256Z,26.80
2018-03-30T02:57:23.730Z,24.03
2018-03-30T02:59:51.211Z,20.70
2018-03-30T03:02:19.448Z,28.10
2018-03-30T03:04:46.927Z,28.40
2018-03-30T03:07:15.172Z,30.12
2018-03-30T03:09:42.648Z,27.40
2018-03-30T03:12:10.124Z,28.00
2018-03-30T03:14:38.417Z,26.23
2018-03-30T03:17:05.897Z,29.20
2018-03-30T03:19:33.370Z,25.53
2018-03-30T03:22:00.851Z,29.97
2018-03-30T03:24:28.331Z,26.77
2018-03-30T03:26:56.583Z,27.97
2018-03-30T03:29:24.055Z,26.70
2018-03-30T03:31:51.527Z,27.43
2018-03-30T03:34:19.766Z,25.77
2018-03-30T03:36:47.237Z,26.23
2018-03-30T03:39:14.715Z,32.83
2018-03-30T03:41:42.963Z,27.73
2018-03-30T03:44:10.471Z,26.00
2018-03-30T03:46:37.947Z,23.00
2018-03-30T03:49:05.432Z,23.40
2018-03-30T03:51:32.915Z,25.10
2018-03-30T03:54:00.392Z,29.80
2018-03-30T03:56:28.632Z,26.70
2018-03-30T03:58:56.113Z,23.60
2018-03-30T04:01:23.580Z,25.60
2018-03-30T04:03:51.867Z,22.03
2018-03-30T04:06:20.112Z,26.97
2018-03-30T04:08:47.592Z,32.00
2018-03-30T04:11:15.835Z,33.07
2018-03-30T04:13:43.323Z,30.63
2018-03-30T04:16:11.584Z,33.88
2018-03-30T04:18:39.063Z,24.92
2018-03-30T04:21:07.299Z,26.97
2018-03-30T04:23:34.776Z,30.03
2018-03-30T04:26:02.247Z,21.60
2018-03-30T04:28:30.478Z,29.30
2018-03-30T04:30:57.961Z,23.67
2018-03-30T04:33:25.427Z,25.53
2018-03-30T04:35:52.908Z,24.53
2018-03-30T04:38:21.143Z,24.37
2018-03-30T04:40:48.624Z,22.63
2018-03-30T04:43:16.091Z,24.50
2018-03-30T04:45:44.336Z,26.67
2018-03-30T04:48:11.805Z,23.07
2018-03-30T04:50:39.279Z,21.80
2018-03-30T04:53:07.520Z,25.33
2018-03-30T04:55:34.999Z,22.70
2018-03-30T04:58:02.474Z,23.57
2018-03-30T05:00:29.953Z,24.90
2018-03-30T05:02:57.423Z,26.63
2018-03-30T05:05:24.920Z,22.50
2018-03-30T05:07:52.445Z,24.07
2018-03-30T05:10:19.880Z,24.90
2018-03-30T05:12:48.116Z,24.53
2018-03-30T05:15:15.590Z,31.47
2018-03-30T05:17:43.055Z,26.73
2018-03-30T05:20:10.540Z,28.30
2018-03-30T05:22:38.012Z,29.33
2018-03-30T05:25:05.488Z,28.20
2018-03-30T05:27:32.963Z,28.23
2018-03-30T05:30:00.453Z,31.63
2018-03-30T05:32:28.690Z,27.50
2018-03-30T05:34:56.162Z,27.57
2018-03-30T05:37:23.631Z,26.03
2018-03-30T05:39:51.110Z,22.93
2018-03-30T05:42:19.364Z,29.70
2018-03-30T05:44:46.840Z,26.10
2018-03-30T05:47:15.080Z,29.50
2018-03-30T05:49:42.563Z,27.60
2018-03-30T05:52:10.028Z,26.00
2018-03-30T05:54:38.281Z,25.63
2018-03-30T05:57:05.752Z,23.70
2018-03-30T05:59:33.231Z,24.43
2018-03-30T06:02:01.467Z,23.47
2018-03-30T06:04:28.958Z,25.53
2018-03-30T06:06:57.196Z,24.60
2018-03-30T06:09:24.687Z,25.43
2018-03-30T06:11:52.150Z,24.33
2018-03-30T06:14:20.396Z,28.07
2018-03-30T06:16:48.634Z,25.73
2018-03-30T06:19:16.149Z,24.03
2018-03-30T06:21:43.596Z,26.93
2018-03-30T06:24:11.072Z,30.60
2018-03-30T06:26:39.320Z,31.33
2018-03-30T06:29:06.787Z,33.60
2018-03-30T06:31:34.296Z,28.93
2018-03-30T06:34:01.764Z,28.70
2018-03-30T06:36:29.240Z,32.93
2018-03-30T06:38:56.856Z,28.37
2018-03-30T06:41:25.102Z,27.10
2018-03-30T06:43:52.578Z,31.07
2018-03-30T06:46:20.054Z,25.57
2018-03-30T06:48:48.284Z,27.23
2018-03-30T06:51:15.789Z,41.83
2018-03-30T06:53:44.024Z,49.60
2018-03-30T06:56:11.505Z,30.63
2018-03-30T06:58:39.757Z,31.83
2018-03-30T07:01:07.231Z,35.30
2018-03-30T07:03:34.695Z,32.27
2018-03-30T07:06:02.171Z,32.03
2018-03-30T07:08:29.641Z,32.50
2018-03-30T07:10:57.123Z,31.67
2018-03-30T07:13:24.611Z,30.70
2018-03-30T07:15:53.871Z,29.23
2018-03-30T07:18:21.338Z,30.03
2018-03-30T07:20:48.826Z,32.20
2018-03-30T07:23:16.323Z,23.93
2018-03-30T07:25:44.571Z,27.03
2018-03-30T07:28:12.044Z,25.50
2018-03-30T07:30:40.315Z,25.97
2018-03-30T07:33:07.779Z,21.73
2018-03-30T07:35:36.027Z,24.43
2018-03-30T07:38:03.515Z,20.90
2018-03-30T07:40:30.990Z,20.43
2018-03-30T07:42:59.221Z,23.23
2018-03-30T07:45:26.704Z,23.43
2018-03-30T07:47:54.940Z,23.27
2018-03-30T07:50:22.416Z,23.57
2018-03-30T07:52:49.887Z,24.63
2018-03-30T07:55:17.376Z,68.97
2018-03-30T07:57:45.616Z,36.07
2018-03-30T08:00:13.091Z,24.33
2018-03-30T08:02:41.327Z,26.60
2018-03-30T08:05:08.820Z,21.70
2018-03-30T08:07:36.290Z,21.13
2018-03-30T08:10:04.523Z,22.67
2018-03-30T08:12:31.998Z,21.90
2018-03-30T08:14:59.472Z,19.83
2018-03-30T08:17:26.950Z,23.47
2018-03-30T08:19:55.192Z,18.93
2018-03-30T08:22:22.668Z,19.93
2018-03-30T08:24:50.908Z,22.40
2018-03-30T08:27:18.391Z,19.77
2018-03-30T08:29:45.867Z,17.60
2018-03-30T08:32:14.120Z,20.87
2018-03-30T08:34:41.588Z,21.40
2018-03-30T08:37:09.069Z,20.60
2018-03-30T08:39:37.308Z,24.33
2018-03-30T08:42:18.602Z,22.53
2018-03-30T08:44:46.077Z,24.53
2018-03-30T08:47:14.324Z,24.70
2018-03-30T08:49:41.788Z,19.30
2018-03-30T08:52:09.295Z,19.73
2018-03-30T08:54:36.760Z,20.93
2018-03-30T08:57:04.252Z,20.17
2018-03-30T08:59:31.718Z,20.30
2018-03-30T09:01:59.191Z,20.87
2018-03-30T09:04:26.654Z,20.03
2018-03-30T09:06:54.136Z,23.03
2018-03-30T09:09:22.369Z,17.17
2018-03-30T09:11:49.848Z,19.53
2018-03-30T09:14:17.315Z,17.80
2018-03-30T09:16:45.551Z,19.13
2018-03-30T09:19:13.799Z,17.90
2018-03-30T09:21:41.275Z,18.77
2018-03-30T09:24:08.748Z,19.43
2018-03-30T09:26:36.227Z,15.43
2018-03-30T09:29:03.700Z,17.40
2018-03-30T09:31:31.947Z,19.00
2018-03-30T09:33:59.424Z,20.03
2018-03-30T09:36:26.912Z,17.47
2018-03-30T09:38:54.395Z,15.53
2018-03-30T09:44:15.668Z,17.00
2018-03-30T09:46:43.147Z,19.23
2018-03-30T09:49:11.393Z,17.17
2018-03-30T09:51:38.875Z,15.93
2018-03-30T09:54:06.377Z,12.20
2018-03-30T09:56:33.852Z,11.43
2018-03-30T09:59:01.319Z,16.60
2018-03-30T10:01:28.806Z,16.47
2018-03-30T10:03:56.337Z,17.80
2018-03-30T10:06:23.817Z,15.90
2018-03-30T10:08:51.296Z,16.60
2018-03-30T10:11:19.543Z,17.17
2018-03-30T10:13:47.014Z,16.90
2018-03-30T10:16:14.522Z,15.50
2018-03-30T10:18:42.022Z,18.37
2018-03-30T10:21:09.509Z,18.30
2018-03-30T10:23:37.746Z,15.67
2018-03-30T10:26:05.256Z,16.03
2018-03-30T10:28:32.729Z,14.60
2018-03-30T10:31:01.027Z,17.60
2018-03-30T10:33:28.502Z,15.67
2018-03-30T10:35:55.978Z,15.37
2018-03-30T10:38:23.455Z,14.97
2018-03-30T10:40:51.697Z,17.13
2018-03-30T10:43:19.196Z,14.43
2018-03-30T10:45:47.426Z,16.43
2018-03-30T10:48:14.914Z,14.40
2018-03-30T10:50:42.378Z,15.50
2018-03-30T10:53:11.441Z,15.57
2018-03-30T10:55:38.910Z,13.10
2018-03-30T10:58:06.393Z,12.23
2018-03-30T11:00:35.519Z,14.43
2018-03-30T11:03:03.021Z,18.33
2018-03-30T11:05:30.517Z,14.63
2018-03-30T11:07:58.759Z,15.23
2018-03-30T11:10:26.236Z,16.03
2018-03-30T11:12:53.708Z,16.93
2018-03-30T11:15:21.955Z,16.70
2018-03-30T11:17:49.444Z,14.20
2018-03-30T11:20:17.684Z,16.20
2018-03-30T11:22:45.175Z,16.80
2018-03-30T11:25:13.412Z,16.23
2018-03-30T11:27:40.891Z,17.60
2018-03-30T11:30:08.368Z,18.90
2018-03-30T11:32:36.611Z,18.93
2018-03-30T11:35:04.092Z,17.93
2018-03-30T11:37:31.592Z,19.33
2018-03-30T11:39:59.061Z,17.20
2018-03-30T11:42:26.545Z,17.13
2018-03-30T11:44:54.024Z,16.40
2018-03-30T11:47:21.501Z,19.83
2018-03-30T11:49:49.736Z,17.97
2018-03-30T11:52:17.215Z,17.33
2018-03-30T11:54:44.692Z,15.53
2018-03-30T11:57:12.945Z,15.70
2018-03-30T11:59:40.420Z,15.33
2018-03-30T12:02:08.664Z,13.60
2018-03-30T12:04:36.137Z,14.63
2018-03-30T12:07:03.620Z,14.13
2018-03-30T12:09:31.859Z,14.13
2018-03-30T12:11:59.347Z,14.90
2018-03-30T12:14:26.820Z,16.10
2018-03-30T12:16:55.077Z,17.03
2018-03-30T12:19:22.542Z,15.07
2018-03-30T12:21:50.037Z,15.47
2018-03-30T12:24:17.499Z,13.97
2018-03-30T12:26:45.024Z,12.87
2018-03-30T12:29:13.278Z,15.13
2018-03-30T12:31:41.547Z,14.07
2018-03-30T12:34:09.299Z,14.50
2018-03-30T12:36:36.792Z,14.17
2018-03-30T12:39:04.656Z,14.67
2018-03-30T12:41:32.128Z,13.07
2018-03-30T12:44:00.381Z,13.50
2018-03-30T12:46:27.854Z,14.30
2018-03-30T12:48:55.339Z,14.00
2018-03-30T12:51:22.812Z,14.67
2018-03-30T12:53:50.301Z,12.80
2018-03-30T12:56:17.767Z,16.10
2018-03-30T12:58:45.253Z,14.27
2018-03-30T13:01:12.715Z,14.97
2018-03-30T13:03:40.960Z,15.53
2018-03-30T13:06:08.471Z,15.23
2018-03-30T13:08:35.923Z,17.00
2018-03-30T13:11:03.612Z,16.57
2018-03-30T13:13:31.142Z,16.97
2018-03-30T13:15:58.622Z,16.23
2018-03-30T13:18:26.105Z,16.90
2018-03-30T13:20:53.571Z,17.93
2018-03-30T13:23:21.060Z,16.50
2018-03-30T13:25:48.528Z,16.20
2018-03-30T13:28:16.774Z,17.00
2018-03-30T13:30:44.251Z,15.67
2018-03-30T13:33:11.731Z,16.83
2018-03-30T13:35:39.208Z,16.00
2018-03-30T13:38:06.687Z,16.87
2018-03-30T13:40:34.171Z,17.70
2018-03-30T13:43:01.714Z,19.23
2018-03-30T13:45:29.923Z,16.40
2018-03-30T13:47:57.380Z,17.40
2018-03-30T13:50:26.761Z,16.47
2018-03-30T13:52:55.162Z,16.60
2018-03-30T13:55:22.615Z,15.20
2018-03-30T13:57:53.815Z,15.90
2018-03-30T14:00:41.119Z,17.03
2018-03-30T14:03:11.531Z,18.00
2018-03-30T14:05:52.311Z,19.07
2018-03-30T14:08:37.396Z,19.67
2018-03-30T14:11:08.514Z,18.50
2018-03-30T14:13:36.800Z,16.90
2018-03-30T14:16:06.855Z,17.13
2018-03-30T14:18:49.675Z,17.53
2018-03-30T14:21:18.669Z,16.87
2018-03-30T14:23:48.094Z,18.90
2018-03-30T14:26:21.403Z,21.13
2018-03-30T14:28:48.886Z,17.70
2018-03-30T14:34:26.876Z,18.10
2018-03-30T14:36:57.167Z,18.83
2018-03-30T14:39:42.160Z,18.70
2018-03-30T14:42:10.541Z,18.33
2018-03-30T14:44:41.693Z,18.63
2018-03-30T14:47:26.797Z,17.97
2018-03-30T14:50:09.941Z,17.60
2018-03-30T14:52:48.021Z,18.90
2018-03-30T14:58:11.881Z,17.60
2018-03-30T15:00:41.174Z,16.63
2018-03-30T15:03:11.508Z,18.10
2018-03-30T15:05:43.656Z,17.23
2018-03-30T15:08:19.745Z,17.83
2018-03-30T15:10:58.975Z,16.43
2018-03-30T15:13:30.109Z,16.93
2018-03-30T15:16:30.110Z,18.63
2018-03-30T15:18:59.047Z,20.07
2018-03-30T15:21:48.988Z,18.60
2018-03-30T15:24:20.101Z,19.53
2018-03-30T15:26:50.237Z,17.23
2018-03-30T15:29:21.167Z,17.60
2018-03-30T15:31:53.980Z,16.27
2018-03-30T15:34:29.966Z,19.67
2018-03-30T15:36:57.442Z,17.43
2018-03-30T15:39:25.164Z,16.80
2018-03-30T15:41:52.646Z,16.40
2018-03-30T15:44:20.137Z,20.37
2018-03-30T15:47:03.332Z,17.07
2018-03-30T15:49:40.699Z,18.13
2018-03-30T15:52:08.215Z,18.60
2018-03-30T15:54:35.700Z,19.57
2018-03-30T15:57:03.191Z,18.50
2018-03-30T15:59:30.660Z,17.90
2018-03-30T16:01:58.134Z,18.23
2018-03-30T16:04:25.632Z,18.93
2018-03-30T16:06:53.111Z,16.40
2018-03-30T16:09:23.414Z,18.00
2018-03-30T16:11:51.688Z,18.80
2018-03-30T16:14:19.163Z,16.73
2018-03-30T16:16:46.644Z,18.40
2018-03-30T16:19:13.623Z,19.10
2018-03-30T16:21:40.623Z,17.10
2018-03-30T16:24:07.671Z,21.03
2018-03-30T16:26:34.659Z,16.60
2018-03-30T16:29:01.649Z,17.60
2018-03-30T16:31:28.629Z,18.77
2018-03-30T16:33:55.659Z,16.40
2018-03-30T16:36:22.681Z,18.87
2018-03-30T16:38:49.627Z,18.33
2018-03-30T16:41:17.372Z,18.20
2018-03-30T16:43:44.362Z,18.93
2018-03-30T16:46:11.349Z,17.97
2018-03-30T16:48:38.342Z,16.17
2018-03-30T16:51:05.320Z,17.33
2018-03-30T16:53:32.319Z,18.97
2018-03-30T16:56:00.064Z,19.40
2018-03-30T16:58:27.068Z,18.03
2018-03-30T17:00:54.083Z,19.80
2018-03-30T17:03:21.837Z,19.40
2018-03-30T17:05:48.816Z,18.10
2018-03-30T17:08:15.804Z,18.63
2018-03-30T17:10:42.783Z,22.53
2018-03-30T17:13:10.540Z,19.70
2018-03-30T17:15:37.526Z,18.33
2018-03-30T17:18:04.535Z,19.00
2018-03-30T17:20:31.523Z,16.97
2018-03-30T17:22:58.514Z,19.03
2018-03-30T17:25:25.503Z,21.80
2018-03-30T17:27:52.572Z,18.63
2018-03-30T17:30:19.709Z,19.70
2018-03-30T17:32:46.652Z,17.77
2018-03-30T17:35:13.640Z,19.23
2018-03-30T17:37:41.426Z,19.30
2018-03-30T17:40:08.435Z,17.20
2018-03-30T17:42:35.424Z,18.67
2018-03-30T17:45:02.442Z,16.87
2018-03-30T17:47:29.449Z,17.10
2018-03-30T17:49:56.437Z,17.73
2018-03-30T17:52:23.410Z,19.33
2018-03-30T17:54:50.404Z,17.87
2018-03-30T17:57:17.383Z,19.00
2018-03-30T17:59:44.388Z,19.93
2018-03-30T18:02:11.392Z,17.67
2018-03-30T18:04:38.427Z,16.80
2018-03-30T18:07:05.396Z,18.47
2018-03-30T18:09:32.379Z,20.90
2018-03-30T18:11:59.376Z,18.13
2018-03-30T18:14:26.372Z,17.87
2018-03-30T18:16:53.356Z,21.77
2018-03-30T18:19:20.339Z,18.43
2018-03-30T18:21:48.074Z,20.47
2018-03-30T18:24:15.064Z,18.83
2018-03-30T18:26:42.803Z,21.20
2018-03-30T18:29:09.797Z,18.90
2018-03-30T18:31:36.780Z,19.07
2018-03-30T18:34:03.771Z,19.60
2018-03-30T18:36:31.533Z,21.17
2018-03-30T18:38:59.280Z,18.90
2018-03-30T18:41:26.284Z,18.70
2018-03-30T18:43:53.263Z,22.63
2018-03-30T18:46:20.266Z,18.70
2018-03-30T18:48:47.271Z,18.77
2018-03-30T18:51:14.263Z,20.97
2018-03-30T18:53:41.242Z,19.17
2018-03-30T18:56:08.234Z,19.40
2018-03-30T18:58:35.222Z,19.40
2018-03-30T19:01:02.211Z,19.50
2018-03-30T19:03:29.968Z,22.40
2018-03-30T19:05:56.995Z,22.47
2018-03-30T19:08:23.972Z,22.57
2018-03-30T19:10:51.732Z,22.73
2018-03-30T19:13:18.713Z,32.43
2018-03-30T19:15:45.714Z,21.40
2018-03-30T19:18:12.717Z,24.80
2018-03-30T19:20:39.723Z,19.63
2018-03-30T19:23:07.474Z,21.90
2018-03-30T19:25:34.459Z,20.73
2018-03-30T19:28:01.436Z,20.20
2018-03-30T19:30:28.428Z,25.30
2018-03-30T19:32:55.410Z,24.37
2018-03-30T19:35:22.415Z,20.87
2018-03-30T19:37:49.402Z,20.90
2018-03-30T19:40:16.397Z,22.27
2018-03-30T19:42:43.408Z,20.50
2018-03-30T19:45:10.380Z,21.97
2018-03-30T19:47:38.130Z,19.90
2018-03-30T19:50:05.117Z,20.53
2018-03-30T19:52:32.091Z,18.93
2018-03-30T19:54:59.071Z,21.60
2018-03-30T19:57:26.046Z,20.30
2018-03-30T19:59:53.075Z,22.30
2018-03-30T20:02:20.053Z,22.63
2018-03-30T20:04:47.040Z,20.43
2018-03-30T20:07:14.024Z,22.67
2018-03-30T20:09:41.003Z,20.67
2018-03-30T20:12:08.748Z,19.83
2018-03-30T20:14:35.769Z,21.97
2018-03-30T20:17:02.743Z,19.83
2018-03-30T20:19:30.230Z,23.47
2018-03-30T20:21:57.970Z,22.30
2018-03-30T20:24:24.952Z,26.30
2018-03-30T20:26:51.936Z,27.63
2018-03-30T20:29:18.931Z,27.53
2018-03-30T20:31:46.679Z,19.67
2018-03-30T20:34:13.680Z,22.57
2018-03-30T20:36:40.663Z,22.77
2018-03-30T20:39:07.639Z,23.17
2018-03-30T20:41:34.648Z,25.27
2018-03-30T20:44:01.717Z,21.77
2018-03-30T20:46:28.652Z,21.57
2018-03-30T20:48:55.659Z,23.77
2018-03-30T20:51:22.651Z,22.57
2018-03-30T20:53:49.640Z,23.10
2018-03-30T20:56:16.620Z,21.20
2018-03-30T20:58:43.605Z,23.77
2018-03-30T21:01:11.360Z,21.50
2018-03-30T21:03:38.340Z,21.77
2018-03-30T21:06:05.323Z,26.77
2018-03-30T21:08:32.311Z,20.77
2018-03-30T21:10:59.312Z,22.20
2018-03-30T21:13:26.284Z,24.20
2018-03-30T21:15:53.272Z,23.60
2018-03-30T21:18:20.247Z,19.90
2018-03-30T21:20:47.228Z,20.33
2018-03-30T21:23:14.217Z,22.13
2018-03-30T21:25:41.203Z,20.40
2018-03-30T21:28:08.176Z,20.17
2018-03-30T21:30:35.155Z,19.13
2018-03-30T21:33:02.134Z,21.20
2018-03-30T21:35:29.125Z,24.70
2018-03-30T21:37:56.867Z,20.37
2018-03-30T21:40:23.847Z,21.97
2018-03-30T21:42:51.588Z,21.00
2018-03-30T21:45:18.584Z,19.37
2018-03-30T21:47:45.564Z,20.30
2018-03-30T21:50:12.551Z,26.17
2018-03-30T21:52:40.294Z,19.20
2018-03-30T21:55:07.331Z,21.70
2018-03-30T21:57:34.316Z,21.23
2018-03-30T22:00:01.320Z,22.13
2018-03-30T22:02:28.306Z,19.03
2018-03-30T22:04:56.064Z,21.40
2018-03-30T22:07:23.804Z,18.17
2018-03-30T22:09:50.798Z,23.23
2018-03-30T22:12:17.771Z,18.93
2018-03-30T22:14:44.825Z,19.63
2018-03-30T22:17:11.815Z,21.23
2018-03-30T22:19:39.568Z,21.00
2018-03-30T22:22:06.561Z,22.20
2018-03-30T22:24:33.536Z,21.57
2018-03-30T22:27:00.525Z,25.23
2018-03-30T22:29:28.266Z,20.47
2018-03-30T22:31:55.261Z,21.13
2018-03-30T22:34:22.235Z,21.30
2018-03-30T22:36:49.219Z,23.60
2018-03-30T22:39:16.191Z,21.33
2018-03-30T22:41:43.192Z,22.20
2018-03-30T22:44:10.171Z,24.27
2018-03-30T22:46:37.931Z,22.23
2018-03-30T22:49:04.911Z,20.67
2018-03-30T22:51:31.894Z,20.87
2018-03-30T22:53:58.878Z,23.00
2018-03-30T22:56:26.762Z,21.00
2018-03-30T22:58:53.788Z,20.70
2018-03-30T23:01:21.535Z,25.30
2018-03-30T23:03:48.511Z,18.87
2018-03-30T23:06:16.263Z,23.70
2018-03-30T23:08:44.015Z,21.83
2018-03-30T23:11:10.999Z,23.50
2018-03-30T23:13:37.999Z,21.67
2018-03-30T23:16:04.988Z,19.93
2018-03-30T23:18:31.964Z,19.80
2018-03-30T23:20:58.951Z,22.83
2018-03-30T23:23:25.943Z,20.30
2018-03-30T23:25:52.929Z,21.40
2018-03-30T23:28:19.913Z,20.53
2018-03-30T23:30:47.680Z,21.20
2018-03-30T23:33:14.655Z,19.20
2018-03-30T23:35:41.643Z,20.03
2018-03-30T23:38:08.627Z,18.93
2018-03-30T23:40:35.637Z,20.20
2018-03-30T23:43:02.616Z,18.43
2018-03-30T23:45:30.367Z,23.87
2018-03-30T23:47:58.112Z,21.60
2018-03-30T23:50:25.101Z,21.07
2018-03-30T23:52:52.103Z,21.47
2018-03-30T23:55:19.087Z,20.57
2018-03-30T23:57:46.831Z,21.40
